sensor_id;sensor_type;location;lat;lon;timestamp;temperature;humidity
25108;DHT22;13090;53.422;7.670;2023-08-07T00:03:56;19.40;76.70
25108;DHT22;13090;53.422;7.670;2023-08-07T00:09:19;19.30;76.60
25108;DHT22;13090;53.422;7.670;2023-08-07T00:14:39;19.30;77.10
25108;DHT22;13090;53.422;7.670;2023-08-07T00:20:00;19.30;77.10
25108;DHT22;13090;53.422;7.670;2023-08-07T00:25:23;19.30;77.30
25108;DHT22;13090;53.422;7.670;2023-08-07T00:30:43;19.30;77.70
25108;DHT22;13090;53.422;7.670;2023-08-07T00:36:04;19.30;77.50
25108;DHT22;13090;53.422;7.670;2023-08-07T00:41:26;19.30;77.70
25108;DHT22;13090;53.422;7.670;2023-08-07T00:46:47;19.30;77.90
25108;DHT22;13090;53.422;7.670;2023-08-07T00:52:08;19.20;77.70
25108;DHT22;13090;53.422;7.670;2023-08-07T00:57:31;19.20;77.80
25108;DHT22;13090;53.422;7.670;2023-08-07T01:02:54;19.10;78.00
25108;DHT22;13090;53.422;7.670;2023-08-07T01:08:17;19.10;78.10
25108;DHT22;13090;53.422;7.670;2023-08-07T01:13:46;19.00;78.00
25108;DHT22;13090;53.422;7.670;2023-08-07T01:19:19;18.90;78.40
25108;DHT22;13090;53.422;7.670;2023-08-07T01:24:46;18.90;79.40
25108;DHT22;13090;53.422;7.670;2023-08-07T01:30:12;18.90;79.00
25108;DHT22;13090;53.422;7.670;2023-08-07T01:35:38;18.90;79.40
25108;DHT22;13090;53.422;7.670;2023-08-07T01:41:03;18.90;79.50
25108;DHT22;13090;53.422;7.670;2023-08-07T01:46:24;18.90;79.80
25108;DHT22;13090;53.422;7.670;2023-08-07T01:51:45;18.90;79.50
25108;DHT22;13090;53.422;7.670;2023-08-07T01:57:07;19.00;79.70
25108;DHT22;13090;53.422;7.670;2023-08-07T02:02:28;19.10;80.70
25108;DHT22;13090;53.422;7.670;2023-08-07T02:07:49;19.10;79.60
25108;DHT22;13090;53.422;7.670;2023-08-07T02:13:11;19.10;79.70
25108;DHT22;13090;53.422;7.670;2023-08-07T02:18:32;19.10;80.10
25108;DHT22;13090;53.422;7.670;2023-08-07T02:23:53;19.10;80.10
25108;DHT22;13090;53.422;7.670;2023-08-07T02:29:15;19.10;80.20
25108;DHT22;13090;53.422;7.670;2023-08-07T02:34:36;19.00;79.70
25108;DHT22;13090;53.422;7.670;2023-08-07T02:39:57;18.90;79.10
25108;DHT22;13090;53.422;7.670;2023-08-07T02:45:19;18.80;78.70
25108;DHT22;13090;53.422;7.670;2023-08-07T02:50:39;18.70;79.00
25108;DHT22;13090;53.422;7.670;2023-08-07T02:56:00;18.60;78.80
25108;DHT22;13090;53.422;7.670;2023-08-07T03:01:23;18.50;79.10
25108;DHT22;13090;53.422;7.670;2023-08-07T03:06:43;18.40;79.30
25108;DHT22;13090;53.422;7.670;2023-08-07T03:12:05;18.40;79.20
25108;DHT22;13090;53.422;7.670;2023-08-07T03:17:27;18.20;79.30
25108;DHT22;13090;53.422;7.670;2023-08-07T03:22:48;18.10;79.50
25108;DHT22;13090;53.422;7.670;2023-08-07T03:28:09;18.10;79.60
25108;DHT22;13090;53.422;7.670;2023-08-07T03:33:31;18.00;79.90
25108;DHT22;13090;53.422;7.670;2023-08-07T03:38:52;17.90;80.40
25108;DHT22;13090;53.422;7.670;2023-08-07T03:44:13;17.90;80.60
25108;DHT22;13090;53.422;7.670;2023-08-07T03:49:35;17.80;80.90
25108;DHT22;13090;53.422;7.670;2023-08-07T03:54:55;17.80;81.30
25108;DHT22;13090;53.422;7.670;2023-08-07T04:00:16;17.80;81.20
25108;DHT22;13090;53.422;7.670;2023-08-07T04:05:39;17.80;81.40
25108;DHT22;13090;53.422;7.670;2023-08-07T04:11:00;17.80;81.70
25108;DHT22;13090;53.422;7.670;2023-08-07T04:16:21;17.80;81.80
25108;DHT22;13090;53.422;7.670;2023-08-07T04:21:43;17.80;81.80
25108;DHT22;13090;53.422;7.670;2023-08-07T04:27:05;17.90;82.00
25108;DHT22;13090;53.422;7.670;2023-08-07T04:32:26;17.90;82.00
25108;DHT22;13090;53.422;7.670;2023-08-07T04:37:48;17.90;81.90
25108;DHT22;13090;53.422;7.670;2023-08-07T04:43:09;17.90;82.10
25108;DHT22;13090;53.422;7.670;2023-08-07T04:48:29;17.90;82.30
25108;DHT22;13090;53.422;7.670;2023-08-07T04:53:52;17.90;82.30
25108;DHT22;13090;53.422;7.670;2023-08-07T04:59:13;17.90;83.00
25108;DHT22;13090;53.422;7.670;2023-08-07T05:04:34;17.90;83.00
25108;DHT22;13090;53.422;7.670;2023-08-07T05:09:56;18.00;83.50
25108;DHT22;13090;53.422;7.670;2023-08-07T05:15:17;18.10;83.80
25108;DHT22;13090;53.422;7.670;2023-08-07T05:20:37;18.30;84.10
25108;DHT22;13090;53.422;7.670;2023-08-07T05:26:00;18.60;84.10
25108;DHT22;13090;53.422;7.670;2023-08-07T05:31:21;18.90;83.30
25108;DHT22;13090;53.422;7.670;2023-08-07T05:36:41;19.00;82.20
25108;DHT22;13090;53.422;7.670;2023-08-07T05:42:04;19.00;81.70
25108;DHT22;13090;53.422;7.670;2023-08-07T05:47:25;18.80;81.90
25108;DHT22;13090;53.422;7.670;2023-08-07T05:52:46;18.70;81.90
25108;DHT22;13090;53.422;7.670;2023-08-07T05:58:09;18.60;82.20
25108;DHT22;13090;53.422;7.670;2023-08-07T06:03:29;18.50;82.50
25108;DHT22;13090;53.422;7.670;2023-08-07T06:08:51;18.50;82.70
25108;DHT22;13090;53.422;7.670;2023-08-07T06:14:13;18.40;82.80
25108;DHT22;13090;53.422;7.670;2023-08-07T06:19:36;18.50;83.10
25108;DHT22;13090;53.422;7.670;2023-08-07T06:24:57;18.50;82.90
25108;DHT22;13090;53.422;7.670;2023-08-07T06:30:20;18.60;83.30
25108;DHT22;13090;53.422;7.670;2023-08-07T06:35:40;18.90;84.20
25108;DHT22;13090;53.422;7.670;2023-08-07T06:41:01;19.30;83.90
25108;DHT22;13090;53.422;7.670;2023-08-07T06:46:23;19.70;83.60
25108;DHT22;13090;53.422;7.670;2023-08-07T06:51:45;20.20;82.20
25108;DHT22;13090;53.422;7.670;2023-08-07T06:57:06;20.40;80.70
25108;DHT22;13090;53.422;7.670;2023-08-07T07:02:28;20.50;80.20
25108;DHT22;13090;53.422;7.670;2023-08-07T07:07:49;20.70;79.80
25108;DHT22;13090;53.422;7.670;2023-08-07T07:13:10;20.80;79.30
25108;DHT22;13090;53.422;7.670;2023-08-07T07:18:32;20.90;78.40
25108;DHT22;13090;53.422;7.670;2023-08-07T07:23:53;21.00;78.90
25108;DHT22;13090;53.422;7.670;2023-08-07T07:29:14;21.70;80.70
25108;DHT22;13090;53.422;7.670;2023-08-07T07:34:36;22.50;78.10
25108;DHT22;13090;53.422;7.670;2023-08-07T07:39:57;22.80;73.40
25108;DHT22;13090;53.422;7.670;2023-08-07T07:45:20;22.60;73.10
25108;DHT22;13090;53.422;7.670;2023-08-07T07:50:42;22.80;75.00
25108;DHT22;13090;53.422;7.670;2023-08-07T07:56:03;23.20;74.80
25108;DHT22;13090;53.422;7.670;2023-08-07T08:01:24;23.60;73.80
25108;DHT22;13090;53.422;7.670;2023-08-07T08:06:46;23.80;69.60
25108;DHT22;13090;53.422;7.670;2023-08-07T08:12:07;23.40;68.30
25108;DHT22;13090;53.422;7.670;2023-08-07T08:17:28;22.90;68.80
25108;DHT22;13090;53.422;7.670;2023-08-07T08:22:51;22.30;70.00
25108;DHT22;13090;53.422;7.670;2023-08-07T08:28:11;22.20;71.80
25108;DHT22;13090;53.422;7.670;2023-08-07T08:33:32;22.40;71.90
25108;DHT22;13090;53.422;7.670;2023-08-07T08:38:55;23.00;71.90
25108;DHT22;13090;53.422;7.670;2023-08-07T08:44:17;23.80;70.70
25108;DHT22;13090;53.422;7.670;2023-08-07T08:49:45;24.60;65.90
25108;DHT22;13090;53.422;7.670;2023-08-07T08:55:09;24.80;60.40
25108;DHT22;13090;53.422;7.670;2023-08-07T09:00:30;24.30;59.80
25108;DHT22;13090;53.422;7.670;2023-08-07T09:05:53;23.60;60.10
25108;DHT22;13090;53.422;7.670;2023-08-07T09:11:15;22.70;62.30
25108;DHT22;13090;53.422;7.670;2023-08-07T09:16:38;22.10;64.10
25108;DHT22;13090;53.422;7.670;2023-08-07T09:21:59;22.00;67.10
25108;DHT22;13090;53.422;7.670;2023-08-07T09:27:21;22.00;67.80
25108;DHT22;13090;53.422;7.670;2023-08-07T09:32:42;21.70;67.50
25108;DHT22;13090;53.422;7.670;2023-08-07T09:38:03;21.30;68.60
25108;DHT22;13090;53.422;7.670;2023-08-07T09:43:25;20.90;70.30
25108;DHT22;13090;53.422;7.670;2023-08-07T09:48:47;20.70;71.50
25108;DHT22;13090;53.422;7.670;2023-08-07T09:54:08;20.50;71.80
25108;DHT22;13090;53.422;7.670;2023-08-07T09:59:32;20.20;72.40
25108;DHT22;13090;53.422;7.670;2023-08-07T10:04:55;20.10;73.30
25108;DHT22;13090;53.422;7.670;2023-08-07T10:10:17;20.20;73.70
25108;DHT22;13090;53.422;7.670;2023-08-07T10:15:40;20.50;73.50
25108;DHT22;13090;53.422;7.670;2023-08-07T10:21:03;21.00;73.60
25108;DHT22;13090;53.422;7.670;2023-08-07T10:26:27;21.70;72.30
25108;DHT22;13090;53.422;7.670;2023-08-07T10:31:50;22.40;68.70
25108;DHT22;13090;53.422;7.670;2023-08-07T10:37:32;22.70;66.40
25108;DHT22;13090;53.422;7.670;2023-08-07T10:42:56;22.90;63.30
25108;DHT22;13090;53.422;7.670;2023-08-07T10:48:20;23.00;62.30
25108;DHT22;13090;53.422;7.670;2023-08-07T10:53:43;23.10;62.60
25108;DHT22;13090;53.422;7.670;2023-08-07T10:59:08;23.60;60.80
25108;DHT22;13090;53.422;7.670;2023-08-07T11:04:31;24.00;58.90
25108;DHT22;13090;53.422;7.670;2023-08-07T11:09:52;24.00;56.70
25108;DHT22;13090;53.422;7.670;2023-08-07T11:15:13;23.80;57.20
25108;DHT22;13090;53.422;7.670;2023-08-07T11:20:37;23.40;59.20
25108;DHT22;13090;53.422;7.670;2023-08-07T11:25:57;23.00;61.30
25108;DHT22;13090;53.422;7.670;2023-08-07T11:31:19;22.90;62.30
25108;DHT22;13090;53.422;7.670;2023-08-07T11:36:43;22.70;62.70
25108;DHT22;13090;53.422;7.670;2023-08-07T11:42:06;22.50;64.30
25108;DHT22;13090;53.422;7.670;2023-08-07T11:47:27;22.50;65.40
25108;DHT22;13090;53.422;7.670;2023-08-07T11:52:49;22.80;65.80
25108;DHT22;13090;53.422;7.670;2023-08-07T11:58:11;23.10;65.20
25108;DHT22;13090;53.422;7.670;2023-08-07T12:03:35;23.40;63.80
25108;DHT22;13090;53.422;7.670;2023-08-07T12:08:57;23.70;63.40
25108;DHT22;13090;53.422;7.670;2023-08-07T12:14:19;24.00;61.30
25108;DHT22;13090;53.422;7.670;2023-08-07T12:19:41;24.20;59.10
25108;DHT22;13090;53.422;7.670;2023-08-07T12:25:04;24.40;56.80
25108;DHT22;13090;53.422;7.670;2023-08-07T12:30:25;24.50;55.90
25108;DHT22;13090;53.422;7.670;2023-08-07T12:35:46;24.70;54.80
25108;DHT22;13090;53.422;7.670;2023-08-07T12:41:08;24.50;54.40
25108;DHT22;13090;53.422;7.670;2023-08-07T12:46:49;24.30;53.00
25108;DHT22;13090;53.422;7.670;2023-08-07T12:52:10;23.90;54.80
25108;DHT22;13090;53.422;7.670;2023-08-07T12:57:33;23.60;54.50
25108;DHT22;13090;53.422;7.670;2023-08-07T13:02:54;23.20;55.40
25108;DHT22;13090;53.422;7.670;2023-08-07T13:08:15;22.90;56.50
25108;DHT22;13090;53.422;7.670;2023-08-07T13:13:37;22.50;57.40
25108;DHT22;13090;53.422;7.670;2023-08-07T13:18:58;22.30;58.70
25108;DHT22;13090;53.422;7.670;2023-08-07T13:24:18;22.20;60.80
25108;DHT22;13090;53.422;7.670;2023-08-07T13:29:41;22.00;61.20
25108;DHT22;13090;53.422;7.670;2023-08-07T13:35:01;21.70;63.10
25108;DHT22;13090;53.422;7.670;2023-08-07T13:40:22;21.50;64.00
25108;DHT22;13090;53.422;7.670;2023-08-07T13:45:45;21.40;65.00
25108;DHT22;13090;53.422;7.670;2023-08-07T13:51:05;21.60;65.60
25108;DHT22;13090;53.422;7.670;2023-08-07T13:56:26;21.70;65.40
25108;DHT22;13090;53.422;7.670;2023-08-07T14:01:48;22.00;65.20
25108;DHT22;13090;53.422;7.670;2023-08-07T14:07:09;22.20;63.30
25108;DHT22;13090;53.422;7.670;2023-08-07T14:12:30;22.30;62.50
25108;DHT22;13090;53.422;7.670;2023-08-07T14:17:52;22.30;62.20
25108;DHT22;13090;53.422;7.670;2023-08-07T14:23:13;22.30;62.10
25108;DHT22;13090;53.422;7.670;2023-08-07T14:28:53;22.00;63.00
25108;DHT22;13090;53.422;7.670;2023-08-07T14:34:15;21.50;63.50
25108;DHT22;13090;53.422;7.670;2023-08-07T14:39:36;20.90;64.70
25108;DHT22;13090;53.422;7.670;2023-08-07T14:44:57;20.50;66.20
25108;DHT22;13090;53.422;7.670;2023-08-07T14:50:19;20.30;67.60
25108;DHT22;13090;53.422;7.670;2023-08-07T14:55:40;20.20;68.80
25108;DHT22;13090;53.422;7.670;2023-08-07T15:01:01;20.20;69.70
25108;DHT22;13090;53.422;7.670;2023-08-07T15:06:23;20.30;70.50
25108;DHT22;13090;53.422;7.670;2023-08-07T15:11:43;20.40;70.70
25108;DHT22;13090;53.422;7.670;2023-08-07T15:17:05;20.50;69.70
25108;DHT22;13090;53.422;7.670;2023-08-07T15:22:27;20.60;68.90
25108;DHT22;13090;53.422;7.670;2023-08-07T15:27:47;20.60;68.50
25108;DHT22;13090;53.422;7.670;2023-08-07T15:33:08;20.50;68.00
25108;DHT22;13090;53.422;7.670;2023-08-07T15:38:30;20.40;67.80
25108;DHT22;13090;53.422;7.670;2023-08-07T15:43:51;20.40;68.00
25108;DHT22;13090;53.422;7.670;2023-08-07T15:49:12;20.30;67.60
25108;DHT22;13090;53.422;7.670;2023-08-07T15:54:34;20.20;67.50
25108;DHT22;13090;53.422;7.670;2023-08-07T15:59:56;20.10;68.00
25108;DHT22;13090;53.422;7.670;2023-08-07T16:05:16;19.90;68.60
25108;DHT22;13090;53.422;7.670;2023-08-07T16:10:40;19.80;69.10
25108;DHT22;13090;53.422;7.670;2023-08-07T16:16:01;19.80;69.70
25108;DHT22;13090;53.422;7.670;2023-08-07T16:21:22;19.90;69.10
25108;DHT22;13090;53.422;7.670;2023-08-07T16:26:44;19.90;68.80
25108;DHT22;13090;53.422;7.670;2023-08-07T16:32:05;20.00;68.90
25108;DHT22;13090;53.422;7.670;2023-08-07T16:37:26;20.10;67.50
25108;DHT22;13090;53.422;7.670;2023-08-07T16:42:49;20.10;66.20
25108;DHT22;13090;53.422;7.670;2023-08-07T16:48:10;20.10;65.30
25108;DHT22;13090;53.422;7.670;2023-08-07T16:53:31;20.00;65.20
25108;DHT22;13090;53.422;7.670;2023-08-07T16:58:54;20.00;65.10
25108;DHT22;13090;53.422;7.670;2023-08-07T17:04:14;19.80;65.00
25108;DHT22;13090;53.422;7.670;2023-08-07T17:09:36;19.70;65.40
25108;DHT22;13090;53.422;7.670;2023-08-07T17:14:58;19.60;65.80
25108;DHT22;13090;53.422;7.670;2023-08-07T17:20:19;19.60;66.10
25108;DHT22;13090;53.422;7.670;2023-08-07T17:25:40;19.60;65.80
25108;DHT22;13090;53.422;7.670;2023-08-07T17:31:03;19.60;65.70
25108;DHT22;13090;53.422;7.670;2023-08-07T17:36:23;19.50;66.00
25108;DHT22;13090;53.422;7.670;2023-08-07T17:41:44;19.50;66.20
25108;DHT22;13090;53.422;7.670;2023-08-07T17:47:07;19.40;67.00
25108;DHT22;13090;53.422;7.670;2023-08-07T17:52:28;19.30;67.60
25108;DHT22;13090;53.422;7.670;2023-08-07T17:57:49;19.20;69.10
25108;DHT22;13090;53.422;7.670;2023-08-07T18:03:11;19.10;69.00
25108;DHT22;13090;53.422;7.670;2023-08-07T18:08:32;19.00;69.60
25108;DHT22;13090;53.422;7.670;2023-08-07T18:13:53;18.90;69.60
25108;DHT22;13090;53.422;7.670;2023-08-07T18:19:16;18.80;69.70
25108;DHT22;13090;53.422;7.670;2023-08-07T18:24:36;18.70;69.80
25108;DHT22;13090;53.422;7.670;2023-08-07T18:29:57;18.60;70.00
25108;DHT22;13090;53.422;7.670;2023-08-07T18:35:20;18.60;69.90
25108;DHT22;13090;53.422;7.670;2023-08-07T18:40:41;18.50;69.60
25108;DHT22;13090;53.422;7.670;2023-08-07T18:46:02;18.50;69.20
25108;DHT22;13090;53.422;7.670;2023-08-07T18:51:24;18.50;68.40
25108;DHT22;13090;53.422;7.670;2023-08-07T18:56:46;18.40;68.00
25108;DHT22;13090;53.422;7.670;2023-08-07T19:02:07;18.20;67.80
25108;DHT22;13090;53.422;7.670;2023-08-07T19:07:29;18.10;67.70
25108;DHT22;13090;53.422;7.670;2023-08-07T19:12:50;18.00;67.90
25108;DHT22;13090;53.422;7.670;2023-08-07T19:18:11;17.90;68.00
25108;DHT22;13090;53.422;7.670;2023-08-07T19:23:33;17.80;68.20
25108;DHT22;13090;53.422;7.670;2023-08-07T19:28:54;17.60;68.60
25108;DHT22;13090;53.422;7.670;2023-08-07T19:34:15;17.50;68.90
25108;DHT22;13090;53.422;7.670;2023-08-07T19:39:37;17.40;69.20
25108;DHT22;13090;53.422;7.670;2023-08-07T19:44:58;17.30;69.70
25108;DHT22;13090;53.422;7.670;2023-08-07T19:50:19;17.20;69.80
25108;DHT22;13090;53.422;7.670;2023-08-07T19:55:41;17.10;70.10
25108;DHT22;13090;53.422;7.670;2023-08-07T20:01:02;17.00;70.50
25108;DHT22;13090;53.422;7.670;2023-08-07T20:06:23;16.90;70.70
25108;DHT22;13090;53.422;7.670;2023-08-07T20:11:45;16.80;71.10
25108;DHT22;13090;53.422;7.670;2023-08-07T20:17:06;16.70;71.50
25108;DHT22;13090;53.422;7.670;2023-08-07T20:22:27;16.60;71.70
25108;DHT22;13090;53.422;7.670;2023-08-07T20:27:49;16.50;72.10
25108;DHT22;13090;53.422;7.670;2023-08-07T20:33:11;16.50;72.40
25108;DHT22;13090;53.422;7.670;2023-08-07T20:38:32;16.40;72.30
25108;DHT22;13090;53.422;7.670;2023-08-07T20:43:55;16.40;72.60
25108;DHT22;13090;53.422;7.670;2023-08-07T20:49:15;16.30;72.80
25108;DHT22;13090;53.422;7.670;2023-08-07T20:54:36;16.30;72.80
25108;DHT22;13090;53.422;7.670;2023-08-07T20:59:59;16.20;73.00
25108;DHT22;13090;53.422;7.670;2023-08-07T21:05:19;16.20;73.20
25108;DHT22;13090;53.422;7.670;2023-08-07T21:10:41;16.10;73.30
25108;DHT22;13090;53.422;7.670;2023-08-07T21:16:03;16.00;73.50
25108;DHT22;13090;53.422;7.670;2023-08-07T21:21:24;16.00;74.10
25108;DHT22;13090;53.422;7.670;2023-08-07T21:26:45;15.90;74.20
25108;DHT22;13090;53.422;7.670;2023-08-07T21:32:08;15.90;74.50
25108;DHT22;13090;53.422;7.670;2023-08-07T21:37:32;15.80;74.90
25108;DHT22;13090;53.422;7.670;2023-08-07T21:42:53;15.80;75.40
25108;DHT22;13090;53.422;7.670;2023-08-07T21:48:15;15.80;75.60
25108;DHT22;13090;53.422;7.670;2023-08-07T21:53:36;15.80;76.10
25108;DHT22;13090;53.422;7.670;2023-08-07T21:58:56;15.80;76.10
25108;DHT22;13090;53.422;7.670;2023-08-07T22:04:19;15.80;76.40
25108;DHT22;13090;53.422;7.670;2023-08-07T22:09:39;15.80;76.70
25108;DHT22;13090;53.422;7.670;2023-08-07T22:15:01;15.80;76.60
25108;DHT22;13090;53.422;7.670;2023-08-07T22:20:24;15.80;76.80
25108;DHT22;13090;53.422;7.670;2023-08-07T22:25:44;15.80;77.20
25108;DHT22;13090;53.422;7.670;2023-08-07T22:31:05;15.80;77.00
25108;DHT22;13090;53.422;7.670;2023-08-07T22:36:28;15.70;77.40
25108;DHT22;13090;53.422;7.670;2023-08-07T22:41:49;15.70;77.80
25108;DHT22;13090;53.422;7.670;2023-08-07T22:47:09;15.60;77.90
25108;DHT22;13090;53.422;7.670;2023-08-07T22:52:32;15.60;78.20
25108;DHT22;13090;53.422;7.670;2023-08-07T22:57:53;15.60;78.70
25108;DHT22;13090;53.422;7.670;2023-08-07T23:03:13;15.50;78.70
25108;DHT22;13090;53.422;7.670;2023-08-07T23:08:37;15.50;78.80
25108;DHT22;13090;53.422;7.670;2023-08-07T23:13:57;15.50;79.10
25108;DHT22;13090;53.422;7.670;2023-08-07T23:19:18;15.50;79.30
25108;DHT22;13090;53.422;7.670;2023-08-07T23:24:41;15.50;79.40
25108;DHT22;13090;53.422;7.670;2023-08-07T23:30:02;15.50;79.70
25108;DHT22;13090;53.422;7.670;2023-08-07T23:35:23;15.50;80.60
25108;DHT22;13090;53.422;7.670;2023-08-07T23:40:45;15.50;79.70
25108;DHT22;13090;53.422;7.670;2023-08-07T23:46:06;15.40;80.10
25108;DHT22;13090;53.422;7.670;2023-08-07T23:51:27;15.40;80.50
25108;DHT22;13090;53.422;7.670;2023-08-07T23:56:50;15.40;80.70
